Terminal Aerodrome Forecast
Issued by NWS Charleston, WV

Current Version | Previous Version | Text Only | Print | Product List | Glossary Off
Versions: 1 2 3 4 5 6 7 8 9 10 11 12 13 14 15 16 17 18 19 20 21

000
FTUS41 KRLX 210904 AAA
TAFHTS
TAF AMD
KHTS 210904Z 2109/2206 21005KT P6SM SHRA OVC020
      TEMPO 2109/2112 BKN008
     FM211200 25006KT P6SM SHRA OVC015
     FM211500 29006KT P6SM BKN015
     FM211700 31007KT P6SM BKN030
     FM211900 31007KT P6SM BKN035
     FM220500 VRB03KT P6SM FEW030=

USA.gov is the U.S. government's official web portal to all federal, state and local government web resources and services.